createdAt,value
2023-01-10T00:00:51.401Z,42.66
2023-01-10T00:01:51.383Z,42.66
2023-01-10T00:02:51.472Z,42.66
2023-01-10T00:03:52.079Z,42.66
2023-01-10T00:04:51.442Z,42.66
2023-01-10T00:05:51.352Z,42.66
2023-01-10T00:06:51.333Z,42.66
2023-01-10T00:07:51.309Z,42.63
2023-01-10T00:08:51.633Z,42.66
2023-01-10T00:09:51.292Z,42.66
2023-01-10T00:10:51.287Z,42.66
2023-01-10T00:11:51.266Z,42.55
2023-01-10T00:12:51.295Z,42.55
2023-01-10T00:13:51.244Z,42.55
2023-01-10T00:14:51.279Z,42.55
2023-01-10T00:15:51.276Z,42.55
2023-01-10T00:16:51.276Z,42.55
2023-01-10T00:17:51.886Z,42.55
2023-01-10T00:18:51.251Z,42.55
2023-01-10T00:19:51.227Z,42.55
2023-01-10T00:20:51.219Z,42.55
2023-01-10T00:21:51.177Z,42.55
2023-01-10T00:22:51.172Z,42.55
2023-01-10T00:23:51.143Z,42.55
2023-01-10T00:24:51.206Z,42.55
2023-01-10T00:25:51.653Z,42.55
2023-01-10T00:26:51.215Z,42.55
2023-01-10T00:27:51.154Z,42.55
2023-01-10T00:28:51.117Z,42.55
2023-01-10T00:29:51.132Z,42.55
2023-01-10T00:30:51.121Z,42.55
2023-01-10T00:31:51.112Z,42.55
2023-01-10T00:32:51.082Z,42.55
2023-01-10T00:33:51.047Z,42.55
2023-01-10T00:34:51.090Z,42.55
2023-01-10T00:35:51.052Z,42.55
2023-01-10T00:36:51.073Z,42.55
2023-01-10T00:37:51.007Z,42.55
2023-01-10T00:38:51.014Z,42.55
2023-01-10T00:39:50.998Z,42.55
2023-01-10T00:40:50.994Z,42.46
2023-01-10T00:41:51.133Z,42.55
2023-01-10T00:42:50.999Z,42.46
2023-01-10T00:43:50.944Z,42.46
2023-01-10T00:44:50.944Z,42.54
2023-01-10T00:45:51.002Z,42.46
2023-01-10T00:46:50.943Z,42.46
2023-01-10T00:47:50.936Z,42.44
2023-01-10T00:48:50.935Z,42.46
2023-01-10T00:49:50.898Z,42.46
2023-01-10T00:50:50.907Z,42.44
2023-01-10T00:51:50.867Z,42.46
2023-01-10T00:52:51.137Z,42.46
2023-01-10T00:53:50.868Z,42.46
2023-01-10T00:54:50.845Z,42.46
2023-01-10T00:55:50.822Z,42.46
2023-01-10T00:56:50.917Z,42.46
2023-01-10T00:57:50.825Z,42.46
2023-01-10T00:58:50.812Z,42.46
2023-01-10T00:59:50.786Z,42.46
2023-01-10T01:00:50.902Z,42.46
2023-01-10T01:01:50.855Z,42.46
2023-01-10T01:02:51.089Z,42.46
2023-01-10T01:03:50.757Z,42.44
2023-01-10T01:04:50.764Z,42.46
2023-01-10T01:05:50.742Z,42.46
2023-01-10T01:06:50.789Z,42.44
2023-01-10T01:07:50.709Z,42.44
2023-01-10T01:08:50.740Z,42.35
2023-01-10T01:09:50.716Z,42.46
2023-01-10T01:10:50.701Z,42.35
2023-01-10T01:11:50.668Z,42.33
2023-01-10T01:12:50.678Z,42.35
2023-01-10T01:13:51.088Z,42.35
2023-01-10T01:14:50.664Z,42.35
2023-01-10T01:15:50.672Z,42.35
2023-01-10T01:16:50.658Z,42.35
2023-01-10T01:17:50.647Z,42.35
2023-01-10T01:18:50.668Z,42.35
2023-01-10T01:19:50.587Z,42.33
2023-01-10T01:20:50.592Z,42.35
2023-01-10T01:21:51.105Z,42.35
2023-01-10T01:22:50.607Z,42.35
2023-01-10T01:23:50.536Z,42.35
2023-01-10T01:24:50.551Z,42.33
2023-01-10T01:25:50.527Z,42.33
2023-01-10T01:26:50.568Z,42.35
2023-01-10T01:27:50.529Z,42.33
2023-01-10T01:28:50.531Z,42.35
2023-01-10T01:29:50.539Z,42.35
2023-01-10T01:30:50.537Z,42.35
2023-01-10T01:31:50.469Z,42.35
2023-01-10T01:32:50.474Z,42.35
2023-01-10T01:33:52.178Z,42.35
2023-01-10T01:34:50.459Z,42.25
2023-01-10T01:35:50.462Z,42.25
2023-01-10T01:36:50.431Z,42.25
2023-01-10T01:37:50.412Z,42.25
2023-01-10T01:38:50.428Z,42.25
2023-01-10T01:39:50.376Z,42.25
2023-01-10T01:40:50.397Z,42.25
2023-01-10T01:41:50.367Z,42.25
2023-01-10T01:42:50.368Z,42.25
2023-01-10T01:43:50.369Z,42.25
2023-01-10T01:44:50.370Z,42.25
2023-01-10T01:45:50.338Z,42.25
2023-01-10T01:46:50.342Z,42.25
2023-01-10T01:47:50.319Z,42.25
2023-01-10T01:48:50.319Z,42.25
2023-01-10T01:49:50.665Z,42.25
2023-01-10T01:50:50.293Z,42.25
2023-01-10T01:51:50.284Z,42.24
2023-01-10T01:52:50.318Z,42.25
2023-01-10T01:53:50.255Z,42.25
2023-01-10T01:54:50.328Z,42.25
2023-01-10T01:55:50.231Z,42.25
2023-01-10T01:56:50.350Z,42.25
2023-01-10T01:57:50.197Z,42.25
2023-01-10T01:58:50.213Z,42.25
2023-01-10T01:59:50.200Z,42.24
2023-01-10T02:00:50.310Z,42.25
2023-01-10T02:01:50.233Z,42.25
2023-01-10T02:03:01.818Z,42.25
2023-01-10T02:03:51.204Z,42.25
2023-01-10T02:04:50.602Z,42.25
2023-01-10T02:05:50.132Z,42.25
2023-01-10T02:06:50.129Z,42.16
2023-01-10T02:07:50.109Z,42.16
2023-01-10T02:08:50.120Z,42.16
2023-01-10T02:09:50.090Z,42.16
2023-01-10T02:10:50.103Z,42.13
2023-01-10T02:11:50.080Z,42.16
2023-01-10T02:12:50.079Z,42.16
2023-01-10T02:13:50.089Z,42.16
2023-01-10T02:14:50.169Z,42.16
2023-01-10T02:15:50.069Z,42.16
2023-01-10T02:16:50.037Z,42.16
2023-01-10T02:17:49.998Z,42.13
2023-01-10T02:18:50.039Z,42.16
2023-01-10T02:19:49.990Z,42.16
2023-01-10T02:20:50.007Z,42.16
2023-01-10T02:21:49.959Z,42.16
2023-01-10T02:22:49.970Z,42.16
2023-01-10T02:23:49.963Z,42.16
2023-01-10T02:24:50.001Z,42.16
2023-01-10T02:25:49.926Z,42.16
2023-01-10T02:26:49.931Z,42.16
2023-01-10T02:27:49.909Z,42.16
2023-01-10T02:28:49.914Z,42.05
2023-01-10T02:29:49.914Z,42.05
2023-01-10T02:30:49.891Z,42.05
2023-01-10T02:31:49.877Z,42.05
2023-01-10T02:33:03.980Z,42.05
2023-01-10T02:33:50.855Z,42.05
2023-01-10T02:34:49.859Z,42.05
2023-01-10T02:35:49.829Z,42.05
2023-01-10T02:36:49.850Z,42.05
2023-01-10T02:37:49.804Z,42.05
2023-01-10T02:38:49.819Z,42.05
2023-01-10T02:39:49.780Z,42.05
2023-01-10T02:40:49.819Z,42.05
2023-01-10T02:41:49.792Z,42.05
2023-01-10T02:42:49.785Z,42.05
2023-01-10T02:43:49.766Z,42.05
2023-01-10T02:44:49.763Z,42.05
2023-01-10T02:45:49.733Z,42.05
2023-01-10T02:46:49.836Z,42.05
2023-01-10T02:47:49.714Z,42.05
2023-01-10T02:48:49.727Z,42.05
2023-01-10T02:49:49.681Z,42.05
2023-01-10T02:50:49.721Z,42.05
2023-01-10T02:51:49.697Z,42.05
2023-01-10T02:52:49.670Z,42.05
2023-01-10T02:53:49.651Z,42.05
2023-01-10T02:54:49.655Z,42.05
2023-01-10T02:55:49.633Z,42.05
2023-01-10T02:56:49.663Z,42.05
2023-01-10T02:57:49.611Z,42.05
2023-01-10T02:58:49.641Z,42.05
2023-01-10T02:59:49.586Z,42.05
2023-01-10T03:00:49.708Z,42.05
2023-01-10T03:01:49.633Z,42.05
2023-01-10T03:02:49.592Z,42.05
2023-01-10T03:03:49.551Z,42.05
2023-01-10T03:04:49.593Z,42.05
2023-01-10T03:05:49.531Z,42.05
2023-01-10T03:06:49.531Z,42.05
2023-01-10T03:07:49.548Z,42.05
2023-01-10T03:08:49.500Z,42.05
2023-01-10T03:09:49.480Z,42.05
2023-01-10T03:10:49.500Z,42.05
2023-01-10T03:11:49.474Z,42.05
2023-01-10T03:12:49.526Z,42.05
2023-01-10T03:13:49.452Z,42.05
2023-01-10T03:14:49.443Z,42.05
2023-01-10T03:15:49.473Z,42.05
2023-01-10T03:16:49.409Z,42.05
2023-01-10T03:17:49.434Z,42.05
2023-01-10T03:18:49.426Z,42.05
2023-01-10T03:19:49.405Z,41.96
2023-01-10T03:20:49.433Z,42.05
2023-01-10T03:21:49.392Z,42.05
2023-01-10T03:22:49.354Z,41.96
2023-01-10T03:23:49.364Z,41.96
2023-01-10T03:24:49.560Z,42.05
2023-01-10T03:25:49.369Z,42.05
2023-01-10T03:26:49.310Z,42.05
2023-01-10T03:27:49.316Z,42.05
2023-01-10T03:28:49.289Z,41.96
2023-01-10T03:29:49.292Z,42.05
2023-01-10T03:30:49.934Z,41.96
2023-01-10T03:31:49.272Z,42.05
2023-01-10T03:32:49.243Z,42.05
2023-01-10T03:33:49.261Z,41.96
2023-01-10T03:34:49.246Z,42.05
2023-01-10T03:35:49.294Z,41.96
2023-01-10T03:36:49.245Z,42.05
2023-01-10T03:37:49.227Z,41.96
2023-01-10T03:38:49.194Z,41.96
2023-01-10T03:39:49.209Z,42.05
2023-01-10T03:40:49.179Z,42.05
2023-01-10T03:41:49.185Z,41.96
2023-01-10T03:42:49.163Z,41.96
2023-01-10T03:43:49.200Z,41.96
2023-01-10T03:44:49.133Z,41.96
2023-01-10T03:45:49.148Z,41.96
2023-01-10T03:46:49.183Z,41.96
2023-01-10T03:47:49.141Z,41.96
2023-01-10T03:48:49.085Z,41.96
2023-01-10T03:49:49.108Z,41.96
2023-01-10T03:50:49.084Z,41.96
2023-01-10T03:51:49.076Z,41.96
2023-01-10T03:52:49.091Z,41.96
2023-01-10T03:53:49.068Z,41.96
2023-01-10T03:54:49.060Z,41.96
2023-01-10T03:55:49.058Z,41.96
2023-01-10T03:56:49.026Z,41.96
2023-01-10T03:57:49.060Z,41.96
2023-01-10T03:58:49.008Z,41.96
2023-01-10T03:59:48.997Z,41.96
2023-01-10T04:00:49.051Z,41.96
2023-01-10T04:01:49.101Z,41.96
2023-01-10T04:02:48.968Z,41.96
2023-01-10T04:03:48.964Z,41.96
2023-01-10T04:04:48.935Z,41.96
2023-01-10T04:05:48.945Z,41.96
2023-01-10T04:06:48.915Z,41.96
2023-01-10T04:08:44.970Z,41.96
2023-01-10T04:09:44.917Z,41.96
2023-01-10T04:10:44.930Z,41.96
2023-01-10T04:11:44.901Z,41.96
2023-01-10T04:12:44.891Z,41.96
2023-01-10T04:13:44.881Z,41.96
2023-01-10T04:14:44.948Z,41.96
2023-01-10T04:15:44.857Z,41.96
2023-01-10T04:16:44.859Z,41.96
2023-01-10T04:17:44.891Z,41.96
2023-01-10T04:18:44.817Z,41.96
2023-01-10T04:19:46.568Z,41.96
2023-01-10T04:20:44.779Z,41.96
2023-01-10T04:21:44.807Z,41.96
2023-01-10T04:22:44.795Z,41.96
2023-01-10T04:23:44.781Z,41.85
2023-01-10T04:24:44.751Z,41.96
2023-01-10T04:25:44.782Z,41.96
2023-01-10T04:26:44.847Z,41.96
2023-01-10T04:27:44.765Z,41.96
2023-01-10T04:28:44.717Z,41.85
2023-01-10T04:29:44.733Z,41.85
2023-01-10T04:30:44.679Z,41.85
2023-01-10T04:31:44.726Z,41.85
2023-01-10T04:32:44.680Z,41.85
2023-01-10T04:33:44.660Z,41.85
2023-01-10T04:34:45.179Z,41.85
2023-01-10T04:35:44.650Z,41.85
2023-01-10T04:36:44.621Z,41.85
2023-01-10T04:37:44.671Z,41.85
2023-01-10T04:38:44.602Z,41.85
2023-01-10T04:39:44.651Z,41.85
2023-01-10T04:40:44.584Z,41.85
2023-01-10T04:41:44.582Z,41.85
2023-01-10T04:42:44.583Z,41.85
2023-01-10T04:43:44.572Z,41.85
2023-01-10T04:44:44.575Z,41.85
2023-01-10T04:45:44.616Z,41.85
2023-01-10T04:46:44.528Z,41.85
2023-01-10T04:47:44.549Z,41.85
2023-01-10T04:48:44.502Z,41.85
2023-01-10T04:49:44.530Z,41.85
2023-01-10T04:50:44.496Z,41.85
2023-01-10T04:51:44.795Z,41.85
2023-01-10T04:52:44.488Z,41.85
2023-01-10T04:53:44.466Z,41.85
2023-01-10T04:54:44.432Z,41.85
2023-01-10T04:55:44.453Z,41.85
2023-01-10T04:56:44.451Z,41.85
2023-01-10T04:57:44.449Z,41.75
2023-01-10T04:58:44.412Z,41.75
2023-01-10T04:59:44.418Z,41.75
2023-01-10T05:00:44.407Z,41.75
2023-01-10T05:01:44.405Z,41.75
2023-01-10T05:02:44.673Z,41.75
2023-01-10T05:03:44.395Z,41.75
2023-01-10T05:04:44.380Z,41.75
2023-01-10T05:05:44.359Z,41.75
2023-01-10T05:06:44.340Z,41.75
2023-01-10T05:07:44.330Z,41.75
2023-01-10T05:08:44.309Z,41.75
2023-01-10T05:09:45.973Z,41.75
2023-01-10T05:10:44.277Z,41.75
2023-01-10T05:11:44.280Z,41.75
2023-01-10T05:12:44.273Z,41.75
2023-01-10T05:13:45.947Z,41.75
2023-01-10T05:14:44.273Z,41.75
2023-01-10T05:15:44.249Z,41.75
2023-01-10T05:16:44.278Z,41.75
2023-01-10T05:17:44.260Z,41.75
2023-01-10T05:18:44.212Z,41.75
2023-01-10T05:19:44.203Z,41.75
2023-01-10T05:20:44.212Z,41.75
2023-01-10T05:21:44.205Z,41.75
2023-01-10T05:22:44.185Z,41.75
2023-01-10T05:23:44.172Z,41.75
2023-01-10T05:24:44.154Z,41.75
2023-01-10T05:25:44.705Z,41.75
2023-01-10T05:26:48.928Z,41.75
2023-01-10T05:27:44.141Z,41.75
2023-01-10T05:28:44.100Z,41.75
2023-01-10T05:29:44.123Z,41.75
2023-01-10T05:30:44.092Z,41.75
2023-01-10T05:31:44.105Z,41.75
2023-01-10T05:32:44.054Z,41.75
2023-01-10T05:33:44.099Z,41.65
2023-01-10T05:34:45.852Z,41.75
2023-01-10T05:35:44.021Z,41.65
2023-01-10T05:36:44.041Z,41.65
2023-01-10T05:37:44.039Z,41.65
2023-01-10T05:38:44.035Z,41.65
2023-01-10T05:39:43.984Z,41.65
2023-01-10T05:40:44.022Z,41.65
2023-01-10T05:41:43.954Z,41.65
2023-01-10T05:42:43.993Z,41.65
2023-01-10T05:43:43.937Z,41.65
2023-01-10T05:44:43.953Z,41.65
2023-01-10T05:45:43.945Z,41.65
2023-01-10T05:46:43.937Z,41.65
2023-01-10T05:47:43.898Z,41.65
2023-01-10T05:48:43.906Z,41.65
2023-01-10T05:49:45.573Z,41.65
2023-01-10T05:50:44.737Z,41.65
2023-01-10T05:51:43.856Z,41.65
2023-01-10T05:52:43.892Z,41.65
2023-01-10T05:53:43.871Z,41.65
2023-01-10T05:54:43.832Z,41.65
2023-01-10T05:55:43.855Z,41.65
2023-01-10T05:56:43.861Z,41.65
2023-01-10T05:57:43.782Z,41.65
2023-01-10T05:58:45.472Z,41.65
2023-01-10T05:59:43.823Z,41.65
2023-01-10T06:00:44.231Z,41.65
2023-01-10T06:01:43.780Z,41.53
2023-01-10T06:02:43.882Z,41.65
2023-01-10T06:03:43.733Z,41.55
2023-01-10T06:04:43.752Z,41.53
2023-01-10T06:05:43.749Z,41.53
2023-01-10T06:06:43.757Z,41.53
2023-01-10T06:07:43.731Z,41.53
2023-01-10T06:08:43.693Z,41.55
2023-01-10T06:09:43.669Z,41.55
2023-01-10T06:10:43.695Z,41.53
2023-01-10T06:11:44.102Z,41.53
2023-01-10T06:12:43.662Z,41.53
2023-01-10T06:13:43.651Z,41.55
2023-01-10T06:14:43.654Z,41.53
2023-01-10T06:15:43.671Z,41.53
2023-01-10T06:16:43.613Z,41.53
2023-01-10T06:17:43.613Z,41.53
2023-01-10T06:18:43.603Z,41.53
2023-01-10T06:19:43.572Z,41.53
2023-01-10T06:20:43.586Z,41.53
2023-01-10T06:21:43.542Z,41.53
2023-01-10T06:22:43.546Z,41.53
2023-01-10T06:23:43.532Z,41.53
2023-01-10T06:24:43.523Z,41.53
2023-01-10T06:25:43.492Z,41.53
2023-01-10T06:26:43.514Z,41.53
2023-01-10T06:27:43.484Z,41.53
2023-01-10T06:28:43.493Z,41.53
2023-01-10T06:29:43.500Z,41.53
2023-01-10T06:30:43.689Z,41.53
2023-01-10T06:31:43.549Z,41.53
2023-01-10T06:32:43.441Z,41.53
2023-01-10T06:33:43.728Z,41.53
2023-01-10T06:34:43.460Z,41.53
2023-01-10T06:35:43.435Z,41.53
2023-01-10T06:36:43.403Z,41.53
2023-01-10T06:37:43.382Z,41.43
2023-01-10T06:38:43.375Z,41.53
2023-01-10T06:39:43.361Z,41.43
2023-01-10T06:40:43.409Z,41.43
2023-01-10T06:41:43.351Z,41.43
2023-01-10T06:42:43.342Z,41.43
2023-01-10T06:43:43.309Z,41.43
2023-01-10T06:44:43.308Z,41.43
2023-01-10T06:45:43.340Z,41.43
2023-01-10T06:46:43.323Z,41.43
2023-01-10T06:47:43.273Z,41.43
2023-01-10T06:48:43.285Z,41.43
2023-01-10T06:49:43.245Z,41.43
2023-01-10T06:50:43.256Z,41.43
2023-01-10T06:51:43.244Z,41.43
2023-01-10T06:52:43.243Z,41.43
2023-01-10T06:53:43.251Z,41.43
2023-01-10T06:54:43.204Z,41.43
2023-01-10T06:55:43.214Z,41.43
2023-01-10T06:56:43.273Z,41.43
2023-01-10T06:57:43.163Z,41.43
2023-01-10T06:58:43.214Z,41.43
2023-01-10T06:59:43.134Z,41.43
2023-01-10T07:00:43.199Z,41.43
2023-01-10T07:01:43.292Z,41.43
2023-01-10T07:02:43.199Z,41.43
2023-01-10T07:03:43.183Z,41.43
2023-01-10T07:04:43.104Z,41.45
2023-01-10T07:05:45.693Z,41.45
2023-01-10T07:06:43.149Z,41.45
2023-01-10T07:07:43.086Z,41.45
2023-01-10T07:08:43.090Z,41.45
2023-01-10T07:09:43.194Z,41.55
2023-01-10T07:10:43.048Z,41.55
2023-01-10T07:11:42.965Z,41.55
2023-01-10T07:12:43.950Z,41.45
2023-01-10T07:13:42.967Z,41.45
2023-01-10T07:14:43.005Z,41.45
2023-01-10T07:15:43.012Z,41.55
2023-01-10T07:16:43.020Z,41.55
2023-01-10T07:17:42.955Z,41.55
2023-01-10T07:18:42.999Z,41.65
2023-01-10T07:19:42.949Z,41.65
2023-01-10T07:20:43.223Z,41.65
2023-01-10T07:21:42.943Z,41.75
2023-01-10T07:22:42.913Z,41.75
2023-01-10T07:23:42.853Z,41.75
2023-01-10T07:24:42.843Z,41.75
2023-01-10T07:25:42.853Z,41.75
2023-01-10T07:26:43.044Z,41.75
2023-01-10T07:27:42.876Z,41.75
2023-01-10T07:28:42.877Z,41.75
2023-01-10T07:29:42.794Z,41.85
2023-01-10T07:30:42.795Z,41.85
2023-01-10T07:31:42.826Z,41.75
2023-01-10T07:32:42.785Z,41.85
2023-01-10T07:33:42.757Z,41.85
2023-01-10T07:34:43.204Z,41.85
2023-01-10T07:35:42.735Z,41.77
2023-01-10T07:36:42.726Z,41.65
2023-01-10T07:37:42.692Z,41.77
2023-01-10T07:38:42.707Z,41.75
2023-01-10T07:39:42.775Z,41.77
2023-01-10T07:40:42.687Z,41.77
2023-01-10T07:41:42.698Z,41.77
2023-01-10T07:42:42.647Z,41.87
2023-01-10T07:43:42.665Z,41.87
2023-01-10T07:44:42.641Z,41.87
2023-01-10T07:45:42.629Z,41.87
2023-01-10T07:46:42.635Z,41.87
2023-01-10T07:47:42.680Z,41.87
2023-01-10T07:48:42.588Z,41.87
2023-01-10T07:49:42.623Z,41.87
2023-01-10T07:50:42.613Z,41.87
2023-01-10T07:51:42.757Z,41.87
2023-01-10T07:52:42.613Z,41.87
2023-01-10T07:53:42.561Z,41.87
2023-01-10T07:54:42.546Z,41.87
2023-01-10T07:55:42.548Z,41.87
2023-01-10T07:56:43.258Z,41.87
2023-01-10T07:57:42.538Z,41.87
2023-01-10T07:58:42.489Z,41.87
2023-01-10T07:59:42.500Z,41.87
2023-01-10T08:00:42.486Z,41.87
2023-01-10T08:01:42.496Z,41.87
2023-01-10T08:02:42.561Z,41.87
2023-01-10T08:03:42.605Z,41.87
2023-01-10T08:04:42.416Z,41.87
2023-01-10T08:05:42.415Z,41.87
2023-01-10T08:06:42.398Z,41.87
2023-01-10T08:07:42.427Z,41.87
2023-01-10T08:08:42.386Z,41.87
2023-01-10T08:09:42.427Z,41.87
2023-01-10T08:10:42.418Z,41.87
2023-01-10T08:11:42.385Z,41.87
2023-01-10T08:12:42.396Z,41.87
2023-01-10T08:13:42.746Z,41.87
2023-01-10T08:14:42.372Z,41.87
2023-01-10T08:15:42.394Z,41.87
2023-01-10T08:16:42.309Z,41.87
2023-01-10T08:17:42.284Z,41.87
2023-01-10T08:18:42.339Z,41.87
2023-01-10T08:19:42.287Z,41.87
2023-01-10T08:20:42.300Z,41.87
2023-01-10T08:21:42.269Z,41.87
2023-01-10T08:22:42.321Z,41.87
2023-01-10T08:23:42.233Z,41.87
2023-01-10T08:24:42.762Z,41.87
2023-01-10T08:25:42.227Z,41.87
2023-01-10T08:26:42.233Z,41.97
2023-01-10T08:27:42.200Z,41.97
2023-01-10T08:28:42.199Z,41.87
2023-01-10T08:29:42.168Z,41.87
2023-01-10T08:30:42.199Z,41.87
2023-01-10T08:31:42.152Z,42.18
2023-01-10T08:32:42.168Z,42.38
2023-01-10T08:33:42.139Z,42.38
2023-01-10T08:34:42.187Z,42.47
2023-01-10T08:35:42.147Z,42.47
2023-01-10T08:36:42.177Z,42.47
2023-01-10T08:37:42.090Z,42.68
2023-01-10T08:38:42.101Z,42.76
2023-01-10T08:39:42.098Z,42.86
2023-01-10T08:40:42.076Z,42.96
2023-01-10T08:41:42.299Z,42.96
2023-01-10T08:42:42.055Z,43.06
2023-01-10T08:43:42.047Z,43.06
2023-01-10T08:44:42.064Z,43.06
2023-01-10T08:45:41.994Z,43.06
2023-01-10T08:46:42.146Z,43.06
2023-01-10T08:47:41.987Z,43.16
2023-01-10T08:48:41.991Z,43.06
2023-01-10T08:49:42.217Z,43.16
2023-01-10T08:50:41.983Z,43.16
2023-01-10T08:51:41.951Z,43.26
2023-01-10T08:52:41.962Z,43.36
2023-01-10T08:53:41.934Z,43.36
2023-01-10T08:54:41.955Z,43.06
2023-01-10T08:55:41.968Z,43.16
2023-01-10T08:56:42.182Z,42.96
2023-01-10T08:57:41.932Z,42.96
2023-01-10T08:58:41.888Z,42.86
2023-01-10T08:59:41.878Z,42.25
2023-01-10T09:00:41.904Z,42.66
2023-01-10T09:01:42.047Z,42.55
2023-01-10T09:02:41.883Z,42.66
2023-01-10T09:03:41.888Z,42.66
2023-01-10T09:04:41.841Z,42.46
2023-01-10T09:05:41.820Z,42.16
2023-01-10T09:06:41.828Z,42.25
2023-01-10T09:07:41.823Z,42.16
2023-01-10T09:09:38.523Z,39.04
2023-01-10T09:10:38.482Z,38.14
2023-01-10T09:11:40.010Z,37.54
2023-01-10T09:12:38.443Z,37.05
2023-01-10T09:13:38.455Z,37.05
2023-01-10T09:14:38.440Z,37.35
2023-01-10T09:15:38.463Z,37.98
2023-01-10T09:16:38.419Z,38.78
2023-01-10T09:17:38.427Z,39.38
2023-01-10T09:18:38.420Z,39.98
2023-01-10T09:19:38.380Z,40.19
2023-01-10T09:20:38.397Z,40.28
2023-01-10T09:21:38.392Z,40.39
2023-01-10T09:22:38.366Z,40.48
2023-01-10T09:23:38.380Z,40.69
2023-01-10T09:24:38.348Z,40.69
2023-01-10T09:25:38.315Z,40.77
2023-01-10T09:26:38.325Z,40.77
2023-01-10T09:27:38.298Z,40.87
2023-01-10T09:28:38.315Z,40.87
2023-01-10T09:29:38.917Z,40.97
2023-01-10T09:30:38.289Z,40.97
2023-01-10T09:31:38.371Z,41.07
2023-01-10T09:32:38.288Z,40.97
2023-01-10T09:33:46.695Z,40.97
2023-01-10T09:34:39.281Z,41.05
2023-01-10T09:35:38.217Z,41.15
2023-01-10T09:36:38.228Z,41.15
2023-01-10T09:37:38.236Z,41.15
2023-01-10T09:38:38.182Z,41.15
2023-01-10T09:39:38.186Z,41.05
2023-01-10T09:40:38.215Z,41.15
2023-01-10T09:41:38.173Z,41.25
2023-01-10T09:42:38.182Z,41.35
2023-01-10T09:43:38.129Z,41.35
2023-01-10T09:44:39.086Z,41.45
2023-01-10T09:45:38.146Z,41.55
2023-01-10T09:46:38.194Z,41.55
2023-01-10T09:47:38.130Z,41.55
2023-01-10T09:48:38.144Z,41.53
2023-01-10T09:49:38.079Z,41.43
2023-01-10T09:50:38.077Z,41.53
2023-01-10T09:51:38.069Z,41.53
2023-01-10T09:52:38.088Z,41.53
2023-01-10T09:53:38.037Z,41.63
2023-01-10T09:54:38.038Z,41.63
2023-01-10T09:55:38.008Z,41.63
2023-01-10T09:56:38.021Z,41.63
2023-01-10T09:57:37.996Z,41.74
2023-01-10T09:58:38.066Z,41.83
2023-01-10T09:59:38.013Z,41.83
2023-01-10T10:00:40.085Z,41.83
2023-01-10T10:01:38.099Z,41.83
2023-01-10T10:02:37.998Z,41.74
2023-01-10T10:03:40.228Z,41.83
2023-01-10T10:04:37.999Z,41.83
2023-01-10T10:05:37.904Z,41.93
2023-01-10T10:06:37.915Z,41.83
2023-01-10T10:07:37.903Z,41.93
2023-01-10T10:08:37.921Z,42.03
2023-01-10T10:09:37.906Z,42.03
2023-01-10T10:10:37.921Z,41.93
2023-01-10T10:11:37.857Z,42.03
2023-01-10T10:12:37.857Z,41.93
2023-01-10T10:13:37.890Z,41.93
2023-01-10T10:14:37.839Z,42.03
2023-01-10T10:15:37.820Z,41.83
2023-01-10T10:16:37.886Z,41.74
2023-01-10T10:17:37.794Z,41.82
2023-01-10T10:18:37.816Z,41.83
2023-01-10T10:19:37.790Z,42.03
2023-01-10T10:20:37.798Z,42.11
2023-01-10T10:21:37.757Z,42.11
2023-01-10T10:22:37.757Z,42.02
2023-01-10T10:23:37.738Z,42.02
2023-01-10T10:24:37.737Z,42.11
2023-01-10T10:25:37.740Z,42.11
2023-01-10T10:26:37.726Z,42.02
2023-01-10T10:27:37.705Z,42.02
2023-01-10T10:28:46.553Z,42.02
2023-01-10T10:29:38.679Z,42.21
2023-01-10T10:30:37.698Z,42.21
2023-01-10T10:31:37.704Z,42.21
2023-01-10T10:32:37.678Z,42.21
2023-01-10T10:33:37.629Z,42.21
2023-01-10T10:34:37.656Z,42.11
2023-01-10T10:35:37.811Z,42.21
2023-01-10T10:36:37.646Z,42.21
2023-01-10T10:37:37.599Z,42.21
2023-01-10T10:38:37.598Z,42.21
2023-01-10T10:39:37.593Z,42.21
2023-01-10T10:40:37.628Z,42.21
2023-01-10T10:41:37.578Z,42.21
2023-01-10T10:42:37.559Z,42.21
2023-01-10T10:43:37.541Z,42.21
2023-01-10T10:44:37.543Z,42.21
2023-01-10T10:45:37.564Z,42.11
2023-01-10T10:46:37.553Z,42.11
2023-01-10T10:47:37.499Z,42.21
2023-01-10T10:48:37.500Z,42.21
2023-01-10T10:49:37.473Z,42.21
2023-01-10T10:50:37.483Z,42.32
2023-01-10T10:51:37.469Z,42.32
2023-01-10T10:52:37.448Z,42.32
2023-01-10T10:53:37.432Z,42.32
2023-01-10T10:54:37.427Z,42.41
2023-01-10T10:55:37.399Z,42.41
2023-01-10T10:56:37.420Z,42.41
2023-01-10T10:57:38.588Z,42.41
2023-01-10T10:58:37.392Z,42.41
2023-01-10T10:59:37.384Z,42.32
2023-01-10T11:00:37.422Z,42.41
2023-01-10T11:01:37.438Z,42.41
2023-01-10T11:02:37.341Z,42.41
2023-01-10T11:03:37.358Z,42.41
2023-01-10T11:04:37.356Z,42.52
2023-01-10T11:05:37.316Z,42.41
2023-01-10T11:06:37.329Z,42.41
2023-01-10T11:07:37.313Z,42.41
2023-01-10T11:08:37.290Z,42.41
2023-01-10T11:09:37.366Z,42.11
2023-01-10T11:10:37.260Z,42.41
2023-01-10T11:11:37.271Z,42.41
2023-01-10T11:12:37.241Z,42.41
2023-01-10T11:13:37.259Z,42.41
2023-01-10T11:14:37.231Z,42.32
2023-01-10T11:15:37.240Z,42.21
2023-01-10T11:16:37.264Z,42.21
2023-01-10T11:17:37.209Z,42.32
2023-01-10T11:18:37.169Z,42.21
2023-01-10T11:19:37.198Z,42.21
2023-01-10T11:20:37.158Z,42.32
2023-01-10T11:21:37.163Z,42.21
2023-01-10T11:22:37.149Z,42.21
2023-01-10T11:23:37.175Z,42.21
2023-01-10T11:24:37.131Z,42.21
2023-01-10T11:25:37.170Z,42.21
2023-01-10T11:26:37.101Z,42.32
2023-01-10T11:27:37.102Z,42.32
2023-01-10T11:28:37.121Z,42.32
2023-01-10T11:29:37.092Z,42.21
2023-01-10T11:30:37.068Z,42.21
2023-01-10T11:31:37.184Z,42.32
2023-01-10T11:32:37.049Z,42.32
2023-01-10T11:33:37.070Z,42.41
2023-01-10T11:34:37.029Z,42.32
2023-01-10T11:35:37.037Z,42.32
2023-01-10T11:36:36.999Z,42.32
2023-01-10T11:37:36.989Z,42.32
2023-01-10T11:38:37.005Z,42.32
2023-01-10T11:39:36.980Z,42.32
2023-01-10T11:40:36.991Z,42.21
2023-01-10T11:41:36.940Z,42.32
2023-01-10T11:42:36.949Z,42.21
2023-01-10T11:43:36.927Z,42.21
2023-01-10T11:44:36.930Z,42.32
2023-01-10T11:45:37.039Z,42.32
2023-01-10T11:46:36.933Z,42.32
2023-01-10T11:47:41.675Z,42.21
2023-01-10T11:49:03.627Z,42.32
2023-01-10T11:49:37.883Z,42.32
2023-01-10T11:50:36.869Z,42.32
2023-01-10T11:51:36.863Z,42.32
2023-01-10T11:52:36.847Z,42.41
2023-01-10T11:53:36.851Z,42.41
2023-01-10T11:54:36.832Z,42.41
2023-01-10T11:55:36.807Z,42.41
2023-01-10T11:56:36.821Z,42.41
2023-01-10T11:57:36.802Z,42.41
2023-01-10T11:58:36.808Z,42.32
2023-01-10T11:59:36.767Z,42.41
2023-01-10T12:00:36.774Z,42.41
2023-01-10T12:01:36.821Z,42.32
2023-01-10T12:02:36.834Z,42.32
2023-01-10T12:03:36.743Z,42.32
2023-01-10T12:04:36.722Z,42.32
2023-01-10T12:05:36.752Z,42.41
2023-01-10T12:06:36.712Z,42.32
2023-01-10T12:07:36.711Z,42.32
2023-01-10T12:08:36.707Z,42.32
2023-01-10T12:09:36.671Z,42.41
2023-01-10T12:10:36.664Z,42.32
2023-01-10T12:11:36.707Z,42.41
2023-01-10T12:12:36.628Z,42.32
2023-01-10T12:13:36.631Z,41.82
2023-01-10T12:14:36.651Z,41.71
2023-01-10T12:15:36.594Z,41.61
2023-01-10T12:16:36.646Z,41.51
2023-01-10T12:17:37.263Z,41.51
2023-01-10T12:18:36.603Z,41.31
2023-01-10T12:19:36.554Z,41.41
2023-01-10T12:20:36.572Z,41.41
2023-01-10T12:21:36.618Z,41.41
2023-01-10T12:22:37.514Z,41.51
2023-01-10T12:23:36.547Z,41.61
2023-01-10T12:24:36.552Z,41.71
2023-01-10T12:25:36.516Z,41.91
2023-01-10T12:26:36.515Z,41.91
2023-01-10T12:27:36.470Z,42.02
2023-01-10T12:28:36.511Z,42.02
2023-01-10T12:29:36.501Z,42.02
2023-01-10T12:30:36.576Z,42.02
2023-01-10T12:31:36.431Z,41.91
2023-01-10T12:32:36.440Z,41.91
2023-01-10T12:33:36.435Z,42.02
2023-01-10T12:34:36.393Z,42.02
2023-01-10T12:35:36.481Z,42.02
2023-01-10T12:36:36.395Z,42.02
2023-01-10T12:37:36.383Z,42.02
2023-01-10T12:38:36.373Z,42.11
2023-01-10T12:39:36.370Z,42.02
2023-01-10T12:40:36.364Z,42.02
2023-01-10T12:41:36.357Z,42.11
2023-01-10T12:42:36.372Z,41.91
2023-01-10T12:43:36.312Z,42.02
2023-01-10T12:44:36.319Z,42.02
2023-01-10T12:45:36.298Z,41.91
2023-01-10T12:47:04.712Z,42.02
2023-01-10T12:47:37.352Z,42.11
2023-01-10T12:48:36.275Z,42.11
2023-01-10T12:49:36.241Z,42.11
2023-01-10T12:50:36.255Z,42.11
2023-01-10T12:51:36.223Z,42.21
2023-01-10T12:52:36.734Z,42.11
2023-01-10T12:53:36.904Z,42.32
2023-01-10T12:54:36.208Z,42.32